Time,TemperatureF,DewpointF,PressureIn,WindDirection,WindDirectionDegrees,WindSpeedMPH,WindSpeedGustMPH,Humidity,HourlyPrecipIn,Conditions,Clouds,dailyrainin,SoftwareType,DateUTC
2013-05-07 00:00:00,52.8,45.8,30.08,SSW,198,0.0,0.0,77,0.00,,CLR,0.00,VWS V14.01,2013-05-07 04:00:00,
2013-05-07 00:01:00,52.8,45.8,30.08,SSW,198,0.0,0.0,77,0.00,,CLR,0.00,VWS V14.01,2013-05-07 04:01:00,
2013-05-07 00:02:00,52.6,45.6,30.08,SSW,198,0.0,0.0,77,0.00,,CLR,0.00,VWS V14.01,2013-05-07 04:02:00,
2013-05-07 00:05:00,52.5,45.5,30.08,SSW,198,0.0,0.0,77,0.00,,CLR,0.00,VWS V14.01,2013-05-07 04:05:00,
2013-05-07 00:10:00,52.3,45.7,30.08,SSW,198,0.0,0.0,78,0.00,,CLR,0.00,VWS V14.01,2013-05-07 04:10:00,
2013-05-07 00:15:00,52.0,45.4,30.08,SSW,198,0.0,0.0,78,0.00,,CLR,0.00,VWS V14.01,2013-05-07 04:15:00,
2013-05-07 00:20:00,51.7,45.4,30.08,SSW,198,0.0,0.0,79,0.00,,CLR,0.00,VWS V14.01,2013-05-07 04:20:00,
2013-05-07 00:25:00,51.6,45.3,30.08,SSW,198,0.0,0.0,79,0.00,,CLR,0.00,VWS V14.01,2013-05-07 04:25:00,
2013-05-07 00:30:00,51.3,45.3,30.09,SSW,198,0.0,0.0,80,0.00,,CLR,0.00,VWS V14.01,2013-05-07 04:30:00,
2013-05-07 00:36:00,51.0,45.1,30.09,SSW,198,0.0,0.0,80,0.00,,CLR,0.00,VWS V14.01,2013-05-07 04:36:00,
2013-05-07 00:41:00,50.8,44.9,30.09,SSW,198,0.0,0.0,80,0.00,,CLR,0.00,VWS V14.01,2013-05-07 04:41:00,
2013-05-07 00:46:00,50.5,44.9,30.08,SSW,198,0.0,0.0,81,0.00,,CLR,0.00,VWS V14.01,2013-05-07 04:46:00,
2013-05-07 00:51:00,50.4,44.8,30.08,SSW,198,0.0,0.0,81,0.00,,CLR,0.00,VWS V14.01,2013-05-07 04:51:00,
2013-05-07 00:56:00,50.1,44.5,30.08,SSW,198,0.0,0.0,81,0.00,,CLR,0.00,VWS V14.01,2013-05-07 04:56:00,
2013-05-07 01:01:00,49.9,44.3,30.08,SSW,198,0.0,0.0,81,0.00,,CLR,0.00,VWS V14.01,2013-05-07 05:01:00,
2013-05-07 01:06:00,49.8,44.2,30.08,SSW,198,0.0,0.0,81,0.00,,CLR,0.00,VWS V14.01,2013-05-07 05:06:00,
2013-05-07 01:11:00,49.6,44.0,30.08,SSW,198,0.0,0.0,81,0.00,,CLR,0.00,VWS V14.01,2013-05-07 05:11:00,
2013-05-07 01:16:00,49.5,44.2,30.07,SSW,198,0.0,0.0,82,0.00,,CLR,0.00,VWS V14.01,2013-05-07 05:16:00,
2013-05-07 01:21:00,49.4,44.1,30.07,SSW,198,0.0,0.0,82,0.00,,CLR,0.00,VWS V14.01,2013-05-07 05:21:00,
2013-05-07 01:26:00,49.2,44.0,30.07,SSW,198,0.0,0.0,82,0.00,,CLR,0.00,VWS V14.01,2013-05-07 05:26:00,
2013-05-07 01:31:00,49.1,44.2,30.07,SSW,198,0.0,0.0,83,0.00,,CLR,0.00,VWS V14.01,2013-05-07 05:31:00,
2013-05-07 01:36:00,48.9,44.0,30.07,SSW,198,0.0,0.0,83,0.00,,CLR,0.00,VWS V14.01,2013-05-07 05:36:00,
2013-05-07 01:41:00,48.8,44.2,30.07,SSW,198,0.0,0.0,84,0.00,,CLR,0.00,VWS V14.01,2013-05-07 05:41:00,
2013-05-07 01:46:00,48.6,44.0,30.07,SSW,198,0.0,0.0,84,0.00,,CLR,0.00,VWS V14.01,2013-05-07 05:46:00,
2013-05-07 01:51:00,48.3,43.7,30.07,SSW,198,0.0,0.0,84,0.00,,CLR,0.00,VWS V14.01,2013-05-07 05:51:00,
2013-05-07 02:50:00,46.1,41.5,30.07,SSW,198,0.0,0.0,84,0.00,,CLR,0.00,VWS V14.01,2013-05-07 06:50:00,
2013-05-07 02:56:00,46.0,41.4,30.07,SSW,199,0.0,0.0,84,0.00,,CLR,0.00,VWS V14.01,2013-05-07 06:56:00,
2013-05-07 03:01:00,45.7,41.2,30.07,SSW,198,0.0,0.0,84,0.00,,CLR,0.00,VWS V14.01,2013-05-07 07:01:00,
2013-05-07 03:06:00,45.5,41.0,30.07,SSW,198,0.0,0.0,84,0.00,,CLR,0.00,VWS V14.01,2013-05-07 07:06:00,
2013-05-07 03:11:00,45.4,40.9,30.07,SSW,198,0.0,0.0,84,0.00,,CLR,0.00,VWS V14.01,2013-05-07 07:11:00,
2013-05-07 03:16:00,45.1,40.6,30.07,SSW,198,0.0,0.0,84,0.00,,CLR,0.00,VWS V14.01,2013-05-07 07:16:00,
2013-05-07 03:21:00,44.9,40.4,30.07,SSW,198,0.0,0.0,84,0.00,,CLR,0.00,VWS V14.01,2013-05-07 07:21:00,
2013-05-07 03:26:00,44.8,40.3,30.07,SSW,198,0.0,0.0,84,0.00,,CLR,0.00,VWS V14.01,2013-05-07 07:26:00,
2013-05-07 03:31:00,44.6,40.1,30.06,SSW,198,0.0,0.0,84,0.00,,CLR,0.00,VWS V14.01,2013-05-07 07:31:00,
2013-05-07 03:36:00,44.3,39.8,30.06,SSW,198,0.0,0.0,84,0.00,,CLR,0.00,VWS V14.01,2013-05-07 07:36:00,
2013-05-07 03:41:00,44.2,39.7,30.06,SSW,198,0.0,0.0,84,0.00,,CLR,0.00,VWS V14.01,2013-05-07 07:41:00,
2013-05-07 03:46:00,44.1,39.6,30.07,SSW,198,0.0,0.0,84,0.00,,CLR,0.00,VWS V14.01,2013-05-07 07:46:00,
2013-05-07 03:51:00,43.9,39.4,30.07,SSW,198,0.0,0.0,84,0.00,,CLR,0.00,VWS V14.01,2013-05-07 07:51:00,
2013-05-07 03:56:00,43.9,39.7,30.07,SSW,198,0.0,0.0,85,0.00,,CLR,0.00,VWS V14.01,2013-05-07 07:56:00,
2013-05-07 04:01:00,43.8,39.6,30.07,SSW,198,0.0,0.0,85,0.00,,CLR,0.00,VWS V14.01,2013-05-07 08:01:00,
2013-05-07 04:06:00,43.6,39.4,30.07,SSW,198,0.0,0.0,85,0.00,,,0.00,VWS V14.01,2013-05-07 08:06:00,
2013-05-07 04:12:00,43.5,39.3,30.07,SSW,198,0.0,0.0,85,0.00,,,0.00,VWS V14.01,2013-05-07 08:12:00,
2013-05-07 04:17:00,43.3,39.1,30.07,SSW,198,0.0,0.0,85,0.00,,,0.00,VWS V14.01,2013-05-07 08:17:00,
2013-05-07 04:22:00,43.2,39.0,30.07,SSW,198,0.0,0.0,85,0.00,,,0.00,VWS V14.01,2013-05-07 08:22:00,
2013-05-07 04:27:00,43.1,38.9,30.07,SSW,198,0.0,0.0,85,0.00,,,0.00,VWS V14.01,2013-05-07 08:27:00,
2013-05-07 04:32:00,43.1,38.9,30.07,SSW,198,0.0,0.0,85,0.00,,,0.00,VWS V14.01,2013-05-07 08:32:00,
2013-05-07 04:37:00,42.8,38.6,30.07,SSW,198,0.0,0.0,85,0.00,,,0.00,VWS V14.01,2013-05-07 08:37:00,
2013-05-07 04:42:00,42.6,38.4,30.07,SSW,198,0.0,0.0,85,0.00,,,0.00,VWS V14.01,2013-05-07 08:42:00,
2013-05-07 04:47:00,42.5,38.6,30.07,SSW,198,0.0,0.0,86,0.00,,,0.00,VWS V14.01,2013-05-07 08:47:00,
2013-05-07 04:52:00,42.3,38.1,30.07,SSW,198,0.0,0.0,85,0.00,,,0.00,VWS V14.01,2013-05-07 08:52:00,
2013-05-07 04:57:00,42.2,38.3,30.07,SSW,198,0.0,0.0,86,0.00,,,0.00,VWS V14.01,2013-05-07 08:57:00,
2013-05-07 05:02:00,42.1,38.2,30.07,SSW,198,0.0,0.0,86,0.00,,,0.00,VWS V14.01,2013-05-07 09:02:00,
2013-05-07 05:07:00,41.9,38.0,30.07,SSW,198,0.0,0.0,86,0.00,,,0.00,VWS V14.01,2013-05-07 09:07:00,
2013-05-07 05:12:00,41.9,38.0,30.07,SSW,198,0.0,0.0,86,0.00,,,0.00,VWS V14.01,2013-05-07 09:12:00,
2013-05-07 05:17:00,41.8,37.9,30.08,SSW,198,0.0,0.0,86,0.00,,,0.00,VWS V14.01,2013-05-07 09:17:00,
2013-05-07 05:22:00,41.6,37.7,30.08,SSW,198,0.0,0.0,86,0.00,,FEW002,0.00,VWS V14.01,2013-05-07 09:22:00,
2013-05-07 05:27:00,41.5,37.6,30.08,SSW,198,0.0,0.0,86,0.00,,FEW002,0.00,VWS V14.01,2013-05-07 09:27:00,
2013-05-07 05:32:00,41.5,37.6,30.07,SSW,198,0.0,0.0,86,0.00,,FEW002,0.00,VWS V14.01,2013-05-07 09:32:00,
2013-05-07 05:37:00,41.3,37.4,30.07,SSW,198,0.0,0.0,86,0.00,,FEW002,0.00,VWS V14.01,2013-05-07 09:37:00,
2013-05-07 05:42:00,41.2,37.3,30.07,SSW,198,0.0,0.0,86,0.00,,FEW002,0.00,VWS V14.01,2013-05-07 09:42:00,
2013-05-07 05:47:00,41.1,37.2,30.07,SSW,198,0.0,0.0,86,0.00,,FEW002,0.00,VWS V14.01,2013-05-07 09:47:00,
2013-05-07 05:53:00,41.1,37.5,30.07,SSW,198,0.0,0.0,87,0.00,,,0.00,VWS V14.01,2013-05-07 09:53:00,
2013-05-07 05:58:00,40.9,37.3,30.07,SSW,198,0.0,0.0,87,0.00,,,0.00,VWS V14.01,2013-05-07 09:58:00,
2013-05-07 06:03:00,40.9,37.3,30.07,SSW,198,0.0,0.0,87,0.00,,,0.00,VWS V14.01,2013-05-07 10:03:00,
2013-05-07 06:08:00,40.8,37.2,30.07,SSW,198,0.0,0.0,87,0.00,,,0.00,VWS V14.01,2013-05-07 10:08:00,
2013-05-07 06:13:00,40.8,37.2,30.07,SSW,198,0.0,0.0,87,0.00,,,0.00,VWS V14.01,2013-05-07 10:13:00,
2013-05-07 06:18:00,40.9,37.3,30.08,SSW,198,0.0,0.0,87,0.00,,,0.00,VWS V14.01,2013-05-07 10:18:00,
2013-05-07 06:23:00,40.9,37.6,30.08,SSW,198,0.0,0.0,88,0.00,,,0.00,VWS V14.01,2013-05-07 10:23:00,
2013-05-07 06:28:00,41.1,37.8,30.08,SSW,198,0.0,0.0,88,0.00,,,0.00,VWS V14.01,2013-05-07 10:28:00,
2013-05-07 06:33:00,41.2,37.9,30.08,SSW,198,0.0,0.0,88,0.00,,,0.00,VWS V14.01,2013-05-07 10:33:00,
2013-05-07 06:38:00,41.6,38.6,30.08,SSW,198,0.0,0.0,89,0.00,,,0.00,VWS V14.01,2013-05-07 10:38:00,
2013-05-07 06:43:00,42.1,39.1,30.08,SSW,198,0.0,0.0,89,0.00,,,0.00,VWS V14.01,2013-05-07 10:43:00,
2013-05-07 06:48:00,42.3,39.6,30.09,SSW,198,0.0,0.0,90,0.00,,,0.00,VWS V14.01,2013-05-07 10:48:00,
2013-05-07 06:53:00,42.6,39.9,30.09,SSW,198,0.0,0.0,90,0.00,,,0.00,VWS V14.01,2013-05-07 10:53:00,
2013-05-07 06:58:00,43.1,40.4,30.09,SSW,198,0.0,0.0,90,0.00,,,0.00,VWS V14.01,2013-05-07 10:58:00,
2013-05-07 07:03:00,43.3,40.6,30.09,SSW,198,0.0,0.0,90,0.00,,BKN001,0.00,VWS V14.01,2013-05-07 11:03:00,
2013-05-07 07:09:00,43.6,41.2,30.09,SSW,198,0.0,0.0,91,0.00,,BKN001,0.00,VWS V14.01,2013-05-07 11:09:00,
2013-05-07 07:14:00,44.1,41.7,30.09,SSW,198,0.0,0.0,91,0.00,,BKN001,0.00,VWS V14.01,2013-05-07 11:14:00,
2013-05-07 07:19:00,44.3,41.8,30.09,SSW,198,0.0,0.0,91,0.00,,BKN001,0.00,VWS V14.01,2013-05-07 11:19:00,
2013-05-07 07:24:00,44.9,42.4,30.09,SSW,198,0.0,0.0,91,0.00,,FEW001,0.00,VWS V14.01,2013-05-07 11:24:00,
2013-05-07 07:29:00,45.5,43.3,30.09,SSW,198,0.0,0.0,92,0.00,,FEW001,0.00,VWS V14.01,2013-05-07 11:29:00,
2013-05-07 07:34:00,46.1,43.9,30.08,SSW,198,0.0,0.0,92,0.00,,FEW001,0.00,VWS V14.01,2013-05-07 11:34:00,
2013-05-07 07:39:00,46.7,44.5,30.08,SSW,198,0.0,0.0,92,0.00,,FEW001,0.00,VWS V14.01,2013-05-07 11:39:00,
2013-05-07 07:44:00,47.4,45.2,30.08,SSW,198,0.0,1.0,92,0.00,,FEW001,0.00,VWS V14.01,2013-05-07 11:44:00,
2013-05-07 07:49:00,48.2,46.3,30.08,ENE,71,0.0,1.0,93,0.00,,FEW001,0.00,VWS V14.01,2013-05-07 11:49:00,
2013-05-07 07:54:00,48.9,46.7,30.08,ENE,73,2.0,3.0,92,0.00,,FEW001,0.00,VWS V14.01,2013-05-07 11:54:00,
2013-05-07 07:59:00,49.8,47.3,30.08,ENE,73,0.0,0.0,91,0.00,,FEW001,0.00,VWS V14.01,2013-05-07 11:59:00,
2013-05-07 08:04:00,50.4,47.6,30.08,ENE,73,0.0,0.0,90,0.00,,CLR,0.00,VWS V14.01,2013-05-07 12:04:00,
2013-05-07 08:09:00,51.1,48.0,30.08,ENE,73,0.0,0.0,89,0.00,,CLR,0.00,VWS V14.01,2013-05-07 12:09:00,
2013-05-07 08:14:00,52.0,48.6,30.08,ENE,73,0.0,0.0,88,0.00,,CLR,0.00,VWS V14.01,2013-05-07 12:14:00,
2013-05-07 08:19:00,53.1,49.0,30.08,ENE,73,0.0,0.0,86,0.00,,CLR,0.00,VWS V14.01,2013-05-07 12:19:00,
2013-05-07 08:24:00,54.2,49.2,30.08,ENE,73,0.0,1.0,83,0.00,,CLR,0.00,VWS V14.01,2013-05-07 12:24:00,
2013-05-07 08:29:00,55.3,49.2,30.08,ENE,73,0.0,0.0,80,0.00,,CLR,0.00,VWS V14.01,2013-05-07 12:29:00,
2013-05-07 08:34:00,56.6,49.1,30.08,ENE,73,0.0,0.0,76,0.00,,CLR,0.00,VWS V14.01,2013-05-07 12:34:00,
2013-05-07 08:39:00,57.5,49.3,30.08,ENE,73,0.0,1.0,74,0.00,,CLR,0.00,VWS V14.01,2013-05-07 12:39:00,
2013-05-07 08:45:00,58.6,49.6,30.08,ENE,73,0.0,0.0,72,0.00,,CLR,0.00,VWS V14.01,2013-05-07 12:45:00,
2013-05-07 08:50:00,59.9,49.3,30.08,ENE,73,0.0,0.0,68,0.00,,CLR,0.00,VWS V14.01,2013-05-07 12:50:00,
2013-05-07 08:55:00,60.9,48.7,30.08,ENE,73,0.0,0.0,64,0.00,,CLR,0.00,VWS V14.01,2013-05-07 12:55:00,
2013-05-07 09:00:00,62.0,50.1,30.08,ENE,73,0.0,0.0,65,0.00,,CLR,0.00,VWS V14.01,2013-05-07 13:00:00,
2013-05-07 09:05:00,62.9,48.4,30.07,ENE,73,0.0,0.0,59,0.00,,CLR,0.00,VWS V14.01,2013-05-07 13:05:00,
2013-05-07 09:10:00,64.2,49.1,30.07,ENE,73,0.0,0.0,58,0.00,,CLR,0.00,VWS V14.01,2013-05-07 13:10:00,
2013-05-07 09:15:00,64.8,48.8,30.07,ENE,73,0.0,1.0,56,0.00,,CLR,0.00,VWS V14.01,2013-05-07 13:15:00,
2013-05-07 09:20:00,65.5,48.9,30.07,ENE,76,0.0,1.0,55,0.00,,CLR,0.00,VWS V14.01,2013-05-07 13:20:00,
2013-05-07 09:25:00,66.3,49.7,30.07,ESE,103,0.0,1.0,55,0.00,,CLR,0.00,VWS V14.01,2013-05-07 13:25:00,
2013-05-07 09:30:00,66.8,48.6,30.07,ESE,103,0.0,1.0,52,0.00,,CLR,0.00,VWS V14.01,2013-05-07 13:30:00,
2013-05-07 09:35:00,67.6,49.9,30.07,ESE,109,1.0,1.0,53,0.00,,CLR,0.00,VWS V14.01,2013-05-07 13:35:00,
2013-05-07 09:40:00,68.1,49.8,30.07,North,6,2.0,3.0,52,0.00,,CLR,0.00,VWS V14.01,2013-05-07 13:40:00,
2013-05-07 09:45:00,68.6,50.3,30.07,NNE,23,1.0,1.0,52,0.00,,CLR,0.00,VWS V14.01,2013-05-07 13:45:00,
2013-05-07 09:50:00,69.1,50.2,30.07,East,96,5.0,5.0,51,0.00,,CLR,0.00,VWS V14.01,2013-05-07 13:50:00,
2013-05-07 09:55:00,69.9,51.5,30.07,NE,56,3.0,5.0,52,0.00,,CLR,0.00,VWS V14.01,2013-05-07 13:55:00,
2013-05-07 10:00:00,70.3,50.8,30.06,ENE,71,0.0,3.0,50,0.00,,CLR,0.00,VWS V14.01,2013-05-07 14:00:00,
2013-05-07 10:06:00,70.8,50.7,30.06,SE,143,0.0,2.0,49,0.00,,CLR,0.00,VWS V14.01,2013-05-07 14:06:00,
2013-05-07 10:11:00,71.1,51.0,30.06,ENE,58,2.0,5.0,49,0.00,,CLR,0.00,VWS V14.01,2013-05-07 14:11:00,
2013-05-07 10:16:00,71.3,49.5,30.06,ENE,66,0.0,4.0,46,0.00,,CLR,0.00,VWS V14.01,2013-05-07 14:16:00,
2013-05-07 10:21:00,71.5,49.7,30.06,NE,54,1.0,1.0,46,0.00,,CLR,0.00,VWS V14.01,2013-05-07 14:21:00,
2013-05-07 10:26:00,71.6,48.6,30.06,ENE,65,0.0,2.0,44,0.00,,CLR,0.00,VWS V14.01,2013-05-07 14:26:00,
2013-05-07 10:31:00,71.8,51.1,30.06,SE,124,0.0,0.0,48,0.00,,CLR,0.00,VWS V14.01,2013-05-07 14:31:00,
2013-05-07 10:36:00,72.1,49.0,30.06,NE,52,0.0,2.0,44,0.00,,CLR,0.00,VWS V14.01,2013-05-07 14:36:00,
2013-05-07 10:41:00,72.3,46.0,30.06,SE,138,0.0,0.0,39,0.00,,CLR,0.00,VWS V14.01,2013-05-07 14:41:00,
2013-05-07 10:46:00,72.7,48.9,30.06,ENE,68,0.0,2.0,43,0.00,,CLR,0.00,VWS V14.01,2013-05-07 14:46:00,
2013-05-07 10:51:00,73.3,48.2,30.06,SE,134,0.0,3.0,41,0.00,,CLR,0.00,VWS V14.01,2013-05-07 14:51:00,
2013-05-07 10:56:00,73.7,47.9,30.06,SE,136,0.0,1.0,40,0.00,,CLR,0.00,VWS V14.01,2013-05-07 14:56:00,
2013-05-07 11:01:00,74.2,48.3,30.06,SSE,155,2.0,4.0,40,0.00,,CLR,0.00,VWS V14.01,2013-05-07 15:01:00,
2013-05-07 11:06:00,74.6,48.7,30.06,ESE,103,0.0,2.0,40,0.00,,CLR,0.00,VWS V14.01,2013-05-07 15:06:00,
2013-05-07 11:11:00,74.9,45.4,30.06,SSE,164,0.0,5.0,35,0.00,,CLR,0.00,VWS V14.01,2013-05-07 15:11:00,
2013-05-07 11:16:00,75.1,47.1,30.05,East,97,1.0,2.0,37,0.00,,CLR,0.00,VWS V14.01,2013-05-07 15:16:00,
2013-05-07 11:21:00,75.3,48.0,30.05,SE,126,0.0,3.0,38,0.00,,CLR,0.00,VWS V14.01,2013-05-07 15:21:00,
2013-05-07 11:26:00,75.3,48.0,30.05,ESE,110,3.0,3.0,38,0.00,,CLR,0.00,VWS V14.01,2013-05-07 15:26:00,
2013-05-07 11:31:00,75.4,46.6,30.05,SSE,167,0.0,3.0,36,0.00,,CLR,0.00,VWS V14.01,2013-05-07 15:31:00,
2013-05-07 11:37:00,75.8,47.7,30.05,SSE,164,3.0,5.0,37,0.00,,CLR,0.00,VWS V14.01,2013-05-07 15:37:00,
2013-05-07 11:42:00,76.0,47.2,30.05,WSW,257,3.0,4.0,36,0.00,,CLR,0.00,VWS V14.01,2013-05-07 15:42:00,
2013-05-07 11:47:00,76.0,46.4,30.05,WSW,246,0.0,2.0,35,0.00,,CLR,0.00,VWS V14.01,2013-05-07 15:47:00,
2013-05-07 11:52:00,76.3,50.9,30.05,SSE,162,2.0,3.0,41,0.00,,CLR,0.00,VWS V14.01,2013-05-07 15:52:00,
2013-05-07 11:57:00,76.5,48.3,30.05,WNW,282,2.0,7.0,37,0.00,,CLR,0.00,VWS V14.01,2013-05-07 15:57:00,
2013-05-07 12:02:00,76.7,45.5,30.04,SSE,151,1.0,4.0,33,0.00,,CLR,0.00,VWS V14.01,2013-05-07 16:02:00,
2013-05-07 12:07:00,76.7,44.7,30.04,NNW,343,0.0,3.0,32,0.00,,CLR,0.00,VWS V14.01,2013-05-07 16:07:00,
2013-05-07 12:12:00,76.7,45.5,30.04,NW,326,0.0,7.0,33,0.00,,CLR,0.00,VWS V14.01,2013-05-07 16:12:00,
2013-05-07 12:17:00,76.8,47.8,30.04,South,181,0.0,2.0,36,0.00,,CLR,0.00,VWS V14.01,2013-05-07 16:17:00,
2013-05-07 12:22:00,76.8,46.3,30.04,South,169,1.0,7.0,34,0.00,,CLR,0.00,VWS V14.01,2013-05-07 16:22:00,
2013-05-07 12:27:00,77.2,48.2,30.04,SSE,155,3.0,3.0,36,0.00,,CLR,0.00,VWS V14.01,2013-05-07 16:27:00,
2013-05-07 12:32:00,77.4,45.3,30.04,South,178,0.0,6.0,32,0.00,,CLR,0.00,VWS V14.01,2013-05-07 16:32:00,
2013-05-07 12:37:00,77.6,44.6,30.04,South,175,3.0,5.0,31,0.00,,CLR,0.00,VWS V14.01,2013-05-07 16:37:00,
2013-05-07 12:42:00,77.7,47.1,30.04,SE,144,0.0,4.0,34,0.00,,CLR,0.00,VWS V14.01,2013-05-07 16:42:00,
2013-05-07 12:47:00,78.1,45.0,30.03,NE,55,0.0,2.0,31,0.00,,CLR,0.00,VWS V14.01,2013-05-07 16:47:00,
2013-05-07 12:52:00,78.1,45.9,30.03,West,270,3.0,4.0,32,0.00,,CLR,0.00,VWS V14.01,2013-05-07 16:52:00,
2013-05-07 12:57:00,78.1,45.0,30.03,SSW,193,2.0,4.0,31,0.00,,CLR,0.00,VWS V14.01,2013-05-07 16:57:00,
2013-05-07 13:02:00,78.3,46.0,30.03,NE,48,0.0,5.0,32,0.00,,CLR,0.00,VWS V14.01,2013-05-07 17:02:00,
2013-05-07 13:07:00,78.5,46.2,30.03,SSE,150,2.0,7.0,32,0.00,,CLR,0.00,VWS V14.01,2013-05-07 17:07:00,
2013-05-07 13:13:00,78.5,45.4,30.03,East,97,2.0,2.0,31,0.00,,CLR,0.00,VWS V14.01,2013-05-07 17:13:00,
2013-05-07 13:18:00,78.6,46.3,30.02,SW,220,1.0,3.0,32,0.00,,CLR,0.00,VWS V14.01,2013-05-07 17:18:00,
2013-05-07 13:23:00,78.8,44.8,30.02,SSE,147,2.0,4.0,30,0.00,,CLR,0.00,VWS V14.01,2013-05-07 17:23:00,
2013-05-07 13:28:00,79.2,46.8,30.02,SE,131,0.0,1.0,32,0.00,,CLR,0.00,VWS V14.01,2013-05-07 17:28:00,
2013-05-07 13:33:00,79.4,44.4,30.02,SSW,196,1.0,6.0,29,0.00,,CLR,0.00,VWS V14.01,2013-05-07 17:33:00,
2013-05-07 13:38:00,79.4,44.4,30.02,South,169,2.0,6.0,29,0.00,,CLR,0.00,VWS V14.01,2013-05-07 17:38:00,
2013-05-07 13:43:00,79.6,44.6,30.02,ESE,114,0.0,1.0,29,0.00,,CLR,0.00,VWS V14.01,2013-05-07 17:43:00,
2013-05-07 13:48:00,79.6,47.2,30.02,North,0,3.0,3.0,32,0.00,,CLR,0.00,VWS V14.01,2013-05-07 17:48:00,
2013-05-07 13:53:00,79.8,48.2,30.02,NNE,28,0.0,1.0,33,0.00,,CLR,0.00,VWS V14.01,2013-05-07 17:53:00,
2013-05-07 13:58:00,79.9,45.7,30.02,SSE,164,2.0,8.0,30,0.00,,CLR,0.00,VWS V14.01,2013-05-07 17:58:00,
2013-05-07 14:03:00,80.3,45.2,30.01,West,271,0.0,4.0,29,0.00,,CLR,0.00,VWS V14.01,2013-05-07 18:03:00,
2013-05-07 14:08:00,80.5,45.3,30.01,SE,140,1.0,6.0,29,0.00,,CLR,0.00,VWS V14.01,2013-05-07 18:08:00,
2013-05-07 14:13:00,80.5,47.1,30.01,ESE,103,0.0,7.0,31,0.00,,CLR,0.00,VWS V14.01,2013-05-07 18:13:00,
2013-05-07 14:18:00,80.7,45.5,30.01,NE,44,0.0,2.0,29,0.00,,CLR,0.00,VWS V14.01,2013-05-07 18:18:00,
2013-05-07 14:23:00,80.9,44.8,30.01,South,171,0.0,6.0,28,0.00,,CLR,0.00,VWS V14.01,2013-05-07 18:23:00,
2013-05-07 14:28:00,81.2,46.0,30.01,SSW,202,3.0,8.0,29,0.00,,CLR,0.00,VWS V14.01,2013-05-07 18:28:00,
2013-05-07 14:34:00,81.2,47.7,30.00,SSE,164,2.0,3.0,31,0.00,,CLR,0.00,VWS V14.01,2013-05-07 18:34:00,
2013-05-07 14:39:00,80.7,46.4,30.00,SW,223,0.0,2.0,30,0.00,,CLR,0.00,VWS V14.01,2013-05-07 18:39:00,
2013-05-07 14:44:00,80.1,47.6,30.00,East,96,1.0,1.0,32,0.00,,CLR,0.00,VWS V14.01,2013-05-07 18:44:00,
2013-05-07 14:49:00,79.6,48.0,29.99,SSE,160,0.0,1.0,33,0.00,,CLR,0.00,VWS V14.01,2013-05-07 18:49:00,
2013-05-07 14:54:00,79.4,47.8,29.99,NW,325,5.0,6.0,33,0.00,,CLR,0.00,VWS V14.01,2013-05-07 18:54:00,
2013-05-07 14:59:00,79.6,48.8,29.99,West,268,0.0,5.0,34,0.00,,CLR,0.00,VWS V14.01,2013-05-07 18:59:00,
2013-05-07 15:04:00,80.1,50.0,29.99,South,182,0.0,5.0,35,0.00,,CLR,0.00,VWS V14.01,2013-05-07 19:04:00,
2013-05-07 15:09:00,80.3,49.4,29.99,SE,124,0.0,6.0,34,0.00,,CLR,0.00,VWS V14.01,2013-05-07 19:09:00,
2013-05-07 15:14:00,80.7,49.0,29.99,South,171,1.0,2.0,33,0.00,,CLR,0.00,VWS V14.01,2013-05-07 19:14:00,
2013-05-07 15:19:00,81.1,51.7,29.99,SSE,152,2.0,5.0,36,0.00,,CLR,0.00,VWS V14.01,2013-05-07 19:19:00,
2013-05-07 15:24:00,81.4,49.6,29.99,SSE,161,5.0,5.0,33,0.00,,CLR,0.00,VWS V14.01,2013-05-07 19:24:00,
2013-05-07 15:29:00,81.6,50.5,29.99,ESE,123,5.0,6.0,34,0.00,,CLR,0.00,VWS V14.01,2013-05-07 19:29:00,
2013-05-07 15:34:00,81.6,48.9,29.98,SSE,158,0.0,1.0,32,0.00,,CLR,0.00,VWS V14.01,2013-05-07 19:34:00,
2013-05-07 15:39:00,81.4,48.7,29.98,SSE,160,1.0,3.0,32,0.00,,CLR,0.00,VWS V14.01,2013-05-07 19:39:00,
2013-05-07 15:44:00,81.1,49.3,29.98,East,93,0.0,3.0,33,0.00,,CLR,0.00,VWS V14.01,2013-05-07 19:44:00,
2013-05-07 15:49:00,80.3,49.4,29.99,SSW,195,2.0,2.0,34,0.00,,CLR,0.00,VWS V14.01,2013-05-07 19:49:00,
2013-05-07 15:54:00,79.8,50.5,29.99,South,172,0.0,3.0,36,0.00,,CLR,0.00,VWS V14.01,2013-05-07 19:54:00,
2013-05-07 16:00:00,79.6,51.1,29.99,SSE,164,4.0,12.0,37,0.00,,CLR,0.00,VWS V14.01,2013-05-07 20:00:00,
2013-05-07 16:05:00,79.0,50.5,29.99,SSE,147,2.0,8.0,37,0.00,,SCT070,0.00,VWS V14.01,2013-05-07 20:05:00,
2013-05-07 16:10:00,78.6,50.9,29.99,SSE,164,7.0,7.0,38,0.00,,SCT070,0.00,VWS V14.01,2013-05-07 20:10:00,
2013-05-07 16:15:00,78.3,50.6,29.99,SSE,162,0.0,3.0,38,0.00,,SCT070,0.00,VWS V14.01,2013-05-07 20:15:00,
2013-05-07 16:20:00,77.7,50.1,29.98,SSE,148,0.0,10.0,38,0.00,,SCT070,0.00,VWS V14.01,2013-05-07 20:20:00,
2013-05-07 16:25:00,77.4,51.2,29.98,SSE,162,0.0,6.0,40,0.00,,SCT070,0.00,VWS V14.01,2013-05-07 20:25:00,
2013-05-07 16:30:00,77.4,51.2,29.98,SSE,162,0.0,3.0,40,0.00,,SCT070,0.00,VWS V14.01,2013-05-07 20:30:00,
2013-05-07 16:35:00,77.4,51.2,29.98,South,184,2.0,4.0,40,0.00,,SCT070,0.00,VWS V14.01,2013-05-07 20:35:00,
2013-05-07 16:40:00,77.7,50.8,29.98,SSE,151,2.0,4.0,39,0.00,,SCT070,0.00,VWS V14.01,2013-05-07 20:40:00,
2013-05-07 16:45:00,78.1,51.2,29.98,SE,145,4.0,7.0,39,0.00,,SCT070,0.00,VWS V14.01,2013-05-07 20:45:00,
2013-05-07 16:50:00,78.1,51.2,29.98,SSE,164,5.0,7.0,39,0.00,,SCT070,0.00,VWS V14.01,2013-05-07 20:50:00,
2013-05-07 16:55:00,78.3,52.0,29.98,South,188,1.0,3.0,40,0.00,,SCT070,0.00,VWS V14.01,2013-05-07 20:55:00,
2013-05-07 17:00:00,78.3,51.3,29.98,South,184,3.0,7.0,39,0.00,,SCT070,0.00,VWS V14.01,2013-05-07 21:00:00,
2013-05-07 17:05:00,78.3,54.0,29.98,SSE,157,14.0,14.0,43,0.00,,CLR,0.00,VWS V14.01,2013-05-07 21:05:00,
2013-05-07 17:10:00,78.1,54.4,29.98,SSE,150,2.0,7.0,44,0.00,,CLR,0.00,VWS V14.01,2013-05-07 21:10:00,
2013-05-07 17:15:00,77.6,54.6,29.99,South,182,2.0,8.0,45,0.00,,CLR,0.00,VWS V14.01,2013-05-07 21:15:00,
2013-05-07 17:20:00,77.2,54.2,29.99,SSE,150,3.0,8.0,45,0.00,,CLR,0.00,VWS V14.01,2013-05-07 21:20:00,
2013-05-07 17:25:00,76.7,54.4,29.99,ESE,123,3.0,5.0,46,0.00,,CLR,0.00,VWS V14.01,2013-05-07 21:25:00,
2013-05-07 17:31:00,76.0,53.8,29.99,South,169,0.0,2.0,46,0.00,,CLR,0.00,VWS V14.01,2013-05-07 21:31:00,
2013-05-07 17:36:00,75.4,53.8,29.99,SSW,208,3.0,4.0,47,0.00,,CLR,0.00,VWS V14.01,2013-05-07 21:36:00,
2013-05-07 17:41:00,74.7,53.7,29.99,ESE,109,0.0,5.0,48,0.00,,CLR,0.00,VWS V14.01,2013-05-07 21:41:00,
2013-05-07 17:46:00,74.2,53.8,29.99,SSW,206,0.0,2.0,49,0.00,,CLR,0.00,VWS V14.01,2013-05-07 21:46:00,
2013-05-07 17:51:00,73.7,53.4,29.99,South,169,0.0,3.0,49,0.00,,CLR,0.00,VWS V14.01,2013-05-07 21:51:00,
2013-05-07 17:56:00,73.3,53.6,29.99,SSE,150,5.0,6.0,50,0.00,,CLR,0.00,VWS V14.01,2013-05-07 21:56:00,
2013-05-07 18:01:00,73.2,53.5,29.99,SSE,160,6.0,10.0,50,0.00,,CLR,0.00,VWS V14.01,2013-05-07 22:01:00,
2013-05-07 18:06:00,73.0,53.3,29.99,SSE,165,2.0,5.0,50,0.00,,CLR,0.00,VWS V14.01,2013-05-07 22:06:00,
2013-05-07 18:11:00,72.8,53.1,29.99,SE,138,1.0,4.0,50,0.00,,CLR,0.00,VWS V14.01,2013-05-07 22:11:00,
2013-05-07 18:16:00,72.8,53.1,29.99,SSE,150,4.0,7.0,50,0.00,,CLR,0.00,VWS V14.01,2013-05-07 22:16:00,
2013-05-07 18:21:00,72.7,53.5,29.99,SSE,167,7.0,7.0,51,0.00,,CLR,0.00,VWS V14.01,2013-05-07 22:21:00,
2013-05-07 18:26:00,72.5,53.4,29.99,SSE,165,0.0,2.0,51,0.00,,CLR,0.00,VWS V14.01,2013-05-07 22:26:00,
2013-05-07 18:31:00,72.3,52.6,30.00,ESE,109,0.0,5.0,50,0.00,,CLR,0.00,VWS V14.01,2013-05-07 22:31:00,
2013-05-07 18:36:00,72.1,52.5,30.00,SW,222,0.0,4.0,50,0.00,,CLR,0.00,VWS V14.01,2013-05-07 22:36:00,
2013-05-07 18:41:00,72.0,52.9,30.00,SSE,167,0.0,0.0,51,0.00,,CLR,0.00,VWS V14.01,2013-05-07 22:41:00,
2013-05-07 18:46:00,71.8,52.7,30.01,SE,134,0.0,0.0,51,0.00,,CLR,0.00,VWS V14.01,2013-05-07 22:46:00,
2013-05-07 18:51:00,71.6,53.1,30.01,SSW,202,0.0,3.0,52,0.00,,CLR,0.00,VWS V14.01,2013-05-07 22:51:00,
2013-05-07 18:56:00,71.5,53.5,30.01,South,172,2.0,6.0,53,0.00,,CLR,0.00,VWS V14.01,2013-05-07 22:56:00,
2013-05-07 19:01:00,71.3,53.3,30.01,SSW,199,3.0,10.0,53,0.00,,CLR,0.00,VWS V14.01,2013-05-07 23:01:00,
2013-05-07 19:07:00,71.1,53.1,30.01,SE,133,2.0,7.0,53,0.00,,CLR,0.00,VWS V14.01,2013-05-07 23:07:00,
2013-05-07 19:12:00,70.9,53.4,30.01,East,99,0.0,3.0,54,0.00,,CLR,0.00,VWS V14.01,2013-05-07 23:12:00,
2013-05-07 19:17:00,70.8,53.3,30.01,SSE,164,3.0,7.0,54,0.00,,CLR,0.00,VWS V14.01,2013-05-07 23:17:00,
2013-05-07 19:22:00,70.4,53.5,30.01,SE,145,4.0,4.0,55,0.00,,CLR,0.00,VWS V14.01,2013-05-07 23:22:00,
2013-05-07 19:27:00,70.3,53.4,30.01,SSE,162,0.0,1.0,55,0.00,,CLR,0.00,VWS V14.01,2013-05-07 23:27:00,
2013-05-07 19:32:00,70.1,53.7,30.02,South,169,1.0,5.0,56,0.00,,CLR,0.00,VWS V14.01,2013-05-07 23:32:00,
2013-05-07 19:37:00,69.9,53.5,30.02,SSW,209,0.0,5.0,56,0.00,,CLR,0.00,VWS V14.01,2013-05-07 23:37:00,
2013-05-07 19:42:00,69.6,53.2,30.02,SE,144,2.0,2.0,56,0.00,,CLR,0.00,VWS V14.01,2013-05-07 23:42:00,
2013-05-07 19:47:00,69.4,53.5,30.02,SSE,155,3.0,3.0,57,0.00,,CLR,0.00,VWS V14.01,2013-05-07 23:47:00,
2013-05-07 19:52:00,69.3,53.4,30.02,South,171,0.0,1.0,57,0.00,,CLR,0.00,VWS V14.01,2013-05-07 23:52:00,
2013-05-07 19:57:00,68.9,53.1,30.02,SSE,164,7.0,7.0,57,0.00,,CLR,0.00,VWS V14.01,2013-05-07 23:57:00,
2013-05-07 20:02:00,68.6,53.2,30.03,South,181,1.0,2.0,58,0.00,,CLR,0.00,VWS V14.01,2013-05-08 00:02:00,
2013-05-07 20:07:00,68.4,53.1,30.03,SSW,196,0.0,1.0,58,0.00,,CLR,0.00,VWS V14.01,2013-05-08 00:07:00,
2013-05-07 20:12:00,68.3,53.0,30.03,SE,136,0.0,1.0,58,0.00,,CLR,0.00,VWS V14.01,2013-05-08 00:12:00,
2013-05-07 20:17:00,67.9,52.6,30.03,SE,136,0.0,1.0,58,0.00,,CLR,0.00,VWS V14.01,2013-05-08 00:17:00,
2013-05-07 20:22:00,67.8,52.5,30.03,South,184,0.0,1.0,58,0.00,,CLR,0.00,VWS V14.01,2013-05-08 00:22:00,
2013-05-07 20:27:00,67.6,52.8,30.03,South,184,0.0,0.0,59,0.00,,CLR,0.00,VWS V14.01,2013-05-08 00:27:00,
2013-05-07 20:32:00,67.3,53.0,30.04,South,184,0.0,0.0,60,0.00,,CLR,0.00,VWS V14.01,2013-05-08 00:32:00,
2013-05-07 20:38:00,66.9,52.6,30.04,South,184,0.0,1.0,60,0.00,,CLR,0.00,VWS V14.01,2013-05-08 00:38:00,
2013-05-07 20:43:00,66.4,52.6,30.04,South,184,0.0,0.0,61,0.00,,CLR,0.00,VWS V14.01,2013-05-08 00:43:00,
2013-05-07 20:48:00,66.1,52.3,30.04,South,184,0.0,0.0,61,0.00,,CLR,0.00,VWS V14.01,2013-05-08 00:48:00,
2013-05-07 20:53:00,65.8,52.4,30.04,South,184,0.0,0.0,62,0.00,,CLR,0.00,VWS V14.01,2013-05-08 00:53:00,
2013-05-07 20:58:00,65.2,52.3,30.04,South,184,0.0,0.0,63,0.00,,CLR,0.00,VWS V14.01,2013-05-08 00:58:00,
2013-05-07 21:03:00,64.7,52.3,30.05,South,184,0.0,0.0,64,0.00,,CLR,0.00,VWS V14.01,2013-05-08 01:03:00,
2013-05-07 21:08:00,64.2,52.6,30.05,South,184,0.0,0.0,66,0.00,,CLR,0.00,VWS V14.01,2013-05-08 01:08:00,
2013-05-07 21:13:00,63.7,52.1,30.05,South,184,0.0,0.0,66,0.00,,CLR,0.00,VWS V14.01,2013-05-08 01:13:00,
2013-05-07 21:18:00,63.2,52.5,30.05,South,184,0.0,0.0,68,0.00,,CLR,0.00,VWS V14.01,2013-05-08 01:18:00,
2013-05-07 21:23:00,62.9,52.2,30.05,South,184,0.0,0.0,68,0.00,,CLR,0.00,VWS V14.01,2013-05-08 01:23:00,
2013-05-07 21:28:00,62.6,51.9,30.05,South,184,0.0,0.0,68,0.00,,CLR,0.00,VWS V14.01,2013-05-08 01:28:00,
2013-05-07 21:33:00,62.4,52.1,30.06,South,184,0.0,0.0,69,0.00,,CLR,0.00,VWS V14.01,2013-05-08 01:33:00,
2013-05-07 21:38:00,62.1,51.8,30.06,South,184,0.0,0.0,69,0.00,,CLR,0.00,VWS V14.01,2013-05-08 01:38:00,
2013-05-07 21:43:00,61.8,52.3,30.06,South,184,0.0,0.0,71,0.00,,CLR,0.00,VWS V14.01,2013-05-08 01:43:00,
2013-05-07 21:48:00,61.3,52.2,30.06,South,184,0.0,0.0,72,0.00,,CLR,0.00,VWS V14.01,2013-05-08 01:48:00,
2013-05-07 21:53:00,61.0,52.3,30.06,South,184,0.0,0.0,73,0.00,,CLR,0.00,VWS V14.01,2013-05-08 01:53:00,
2013-05-07 21:59:00,60.7,52.4,30.06,South,184,0.0,0.0,74,0.00,,CLR,0.00,VWS V14.01,2013-05-08 01:59:00,
2013-05-07 22:04:00,60.4,51.7,30.07,South,184,0.0,0.0,73,0.00,,CLR,0.00,VWS V14.01,2013-05-08 02:04:00,
2013-05-07 22:09:00,60.2,51.9,30.07,South,184,0.0,0.0,74,0.00,,CLR,0.00,VWS V14.01,2013-05-08 02:09:00,
2013-05-07 22:14:00,60.1,51.8,30.07,South,184,0.0,0.0,74,0.00,,CLR,0.00,VWS V14.01,2013-05-08 02:14:00,
2013-05-07 22:19:00,59.9,51.6,30.07,South,184,0.0,0.0,74,0.00,,CLR,0.00,VWS V14.01,2013-05-08 02:19:00,
2013-05-07 22:24:00,59.6,51.7,30.07,South,184,0.0,0.0,75,0.00,,CLR,0.00,VWS V14.01,2013-05-08 02:24:00,
2013-05-07 22:29:00,59.5,51.6,30.07,South,184,0.0,0.0,75,0.00,,CLR,0.00,VWS V14.01,2013-05-08 02:29:00,
2013-05-07 22:34:00,59.2,51.3,30.07,South,184,0.0,0.0,75,0.00,,CLR,0.00,VWS V14.01,2013-05-08 02:34:00,
2013-05-07 22:39:00,59.0,51.1,30.07,South,184,0.0,0.0,75,0.00,,CLR,0.00,VWS V14.01,2013-05-08 02:39:00,
2013-05-07 22:44:00,58.9,51.4,30.07,South,184,0.0,0.0,76,0.00,,CLR,0.00,VWS V14.01,2013-05-08 02:44:00,
2013-05-07 22:49:00,58.6,51.4,30.07,South,184,0.0,0.0,77,0.00,,CLR,0.00,VWS V14.01,2013-05-08 02:49:00,
2013-05-07 22:54:00,58.4,51.6,30.07,South,184,0.0,0.0,78,0.00,,CLR,0.00,VWS V14.01,2013-05-08 02:54:00,
2013-05-07 22:59:00,58.3,51.8,30.07,South,184,0.0,0.0,79,0.00,,CLR,0.00,VWS V14.01,2013-05-08 02:59:00,
2013-05-07 23:04:00,58.0,51.5,30.07,South,184,0.0,0.0,79,0.00,,CLR,0.00,VWS V14.01,2013-05-08 03:04:00,
2013-05-07 23:09:00,57.8,51.7,30.07,South,184,0.0,0.0,80,0.00,,CLR,0.00,VWS V14.01,2013-05-08 03:09:00,
2013-05-07 23:15:00,57.6,51.8,30.07,South,184,0.0,0.0,81,0.00,,CLR,0.00,VWS V14.01,2013-05-08 03:15:00,
2013-05-07 23:20:00,57.5,51.7,30.07,South,184,0.0,0.0,81,0.00,,CLR,0.00,VWS V14.01,2013-05-08 03:20:00,
2013-05-07 23:25:00,57.3,51.9,30.07,South,184,0.0,0.0,82,0.00,,CLR,0.00,VWS V14.01,2013-05-08 03:25:00,
2013-05-07 23:30:00,57.2,52.1,30.07,South,184,0.0,0.0,83,0.00,,CLR,0.00,VWS V14.01,2013-05-08 03:30:00,
2013-05-07 23:35:00,57.0,51.9,30.07,South,184,0.0,0.0,83,0.00,,CLR,0.00,VWS V14.01,2013-05-08 03:35:00,
2013-05-07 23:40:00,56.9,52.1,30.07,South,184,0.0,0.0,84,0.00,,CLR,0.00,VWS V14.01,2013-05-08 03:40:00,
2013-05-07 23:45:00,56.7,51.9,30.07,South,184,0.0,0.0,84,0.00,,CLR,0.00,VWS V14.01,2013-05-08 03:45:00,
2013-05-07 23:50:00,56.6,51.8,30.07,South,184,0.0,0.0,84,0.00,,CLR,0.00,VWS V14.01,2013-05-08 03:50:00,
2013-05-07 23:55:00,56.5,51.7,30.07,South,184,0.0,0.0,84,0.00,,CLR,0.00,VWS V14.01,2013-05-08 03:55:00,